• Join FlightAware (Why Join?)
  • Login
  • US Flag 
02:32PM EDT


 

Airport Tracker/Info


-or-


 

Live Flight TrackerFlight Track Log ✈ CTL311 ✈ 04-Jul-2013 ✈ KTYS - KJXN

Flight Track Log - Related Links

Times and Time Zones

All times are in EDT time to prevent confusion due to time zone crossing. See the CTL311 flight status page for this flight to view local times or setup timezone preferences in your user account.

Time Position Orientation Groundspeed Altitude Reporting Facility
EDT Latitude Longitude Course Direction KTS MPH feet Rate Location/Type
05:04AM 35.8367 -83.9800 North 129 148 1,800  Level Indianapolis Center
05:05AM 35.8767 -83.9844 355° North 142 163 2,400 540 Climbing Indianapolis Center
05:06AM 35.9203 -83.9917 352° North 149 171 2,900 540 Climbing Indianapolis Center
05:07AM 35.9683 -83.9944 357° North 163 188 3,600 600 Climbing Indianapolis Center
05:08AM 36.0144 -83.9983 356° North 165 190 4,200 600 Climbing Indianapolis Center
05:09AM 36.0614 -84.0039 355° North 168 193 4,900 540 Climbing Indianapolis Center
05:10AM 36.0619 -84.0000 North  Level FlightAware Approximate
05:10AM 36.1114 -84.0089 355° North 175 201 5,300  Level Indianapolis Center
05:12AM 36.1631 -84.0131 356° North 183 211 5,900 540 Climbing Indianapolis Center
05:13AM 36.2164 -84.0147 359° North 189 217 6,400 540 Climbing Indianapolis Center
05:14AM 36.2661 -84.0169 358° North 184 212 7,000 480 Climbing Indianapolis Center
05:15AM 36.3164 -84.0181 359° North 181 208 7,400 360 Climbing Indianapolis Center
05:16AM 36.3675 -84.0222 356° North 182 209 7,800 540 Climbing Indianapolis Center
05:17AM 36.4144 -84.0283 354° North 174 200 8,500 600 Climbing Indianapolis Center
05:18AM 36.4617 -84.0289 359° North 172 198 9,000 240 Climbing Indianapolis Center
05:19AM 36.5136 -84.0314 358° North 177 204 9,000  Level Indianapolis Center
05:20AM 36.5658 -84.0394 353° North 184 212 9,100  Climbing Indianapolis Center
05:21AM 36.6175 -84.0367 North 186 214 9,000 -120 Descending Indianapolis Center
05:22AM 36.6686 -84.0458 352° North 183 211 8,900 -60 Descending Indianapolis Center
05:23AM 36.7164 -84.0644 343° North 180 207 8,900  Level Indianapolis Center
05:24AM 36.7650 -84.0750 350° North 182 209 8,900  Level Indianapolis Center
05:25AM 36.8153 -84.0589 14° North 186 214 9,000  Climbing Indianapolis Center
05:26AM 36.8672 -84.0494 North 187 215 9,000  Level Indianapolis Center
05:27AM 36.9211 -84.0425 North 193 222 9,000  Level Indianapolis Center
05:28AM 36.9756 -84.0317 North 197 227 9,000  Level Indianapolis Center
05:29AM 37.0314 -84.0350 357° North 199 229 9,000  Level Indianapolis Center
05:30AM 37.0889 -84.0375 358° North 203 234 9,000 -60 Level Indianapolis Center
05:31AM 37.1453 -84.0406 358° North 203 234 8,900  Descending Indianapolis Center
05:32AM 37.2011 -84.0406 360° North 200 230 9,000  Climbing Indianapolis Center
05:33AM 37.2533 -84.0453 356° North 192 221 8,900  Descending Indianapolis Center
05:34AM 37.3058 -84.0358 North 193 222 9,000  Climbing Indianapolis Center
05:35AM 37.3583 -84.0408 356° North 189 217 9,000  Level Indianapolis Center
05:36AM 37.4111 -84.0464 355° North 190 219 9,000  Level Indianapolis Center
05:37AM 37.4642 -84.0506 356° North 190 219 9,000  Level Indianapolis Center
05:38AM 37.5169 -84.0556 356° North 190 219 9,000  Level Indianapolis Center
05:39AM 37.5697 -84.0589 357° North 189 217 9,000  Level Indianapolis Center
05:40AM 37.6219 -84.0597 359° North 189 217 9,000  Level Indianapolis Center
05:41AM 37.6747 -84.0686 352° North 190 219 9,100  Climbing Indianapolis Center
05:42AM 37.7264 -84.0661 North 189 217 9,000 -60 Descending Indianapolis Center
05:43AM 37.7778 -84.0650 North 186 214 9,000 -60 Level Indianapolis Center
05:44AM 37.8292 -84.0769 350° North 188 216 8,900 -60 Descending Indianapolis Center
05:45AM 37.8819 -84.0825 355° North 190 219 8,900  Level Indianapolis Center
05:46AM 37.9317 -84.0897 353° North 182 209 8,900 -60 Level Indianapolis Center
05:47AM 37.9825 -84.0944 356° North 182 209 8,800  Descending Indianapolis Center
05:48AM 38.0319 -84.0981 357° North 179 206 8,900  Climbing Indianapolis Center
05:49AM 38.0828 -84.0833 13° North 183 211 8,900  Level Indianapolis Center
05:50AM 38.1322 -84.0889 355° North 181 208 8,900  Level Indianapolis Center
05:51AM 38.1808 -84.0897 359° North 175 201 9,000 60 Climbing Indianapolis Center
05:52AM 38.2333 -84.0947 356° North 184 212 9,100  Climbing Indianapolis Center
05:53AM 38.2828 -84.0967 358° North 180 207 9,100 -60 Level Indianapolis Center
05:54AM 38.3347 -84.0986 358° North 183 211 9,000 -120 Descending Indianapolis Center
05:55AM 38.3842 -84.1114 349° North 188 216 8,900  Descending Indianapolis Center
05:56AM 38.4311 -84.1344 339° North 181 208 9,000  Climbing Indianapolis Center
05:57AM 38.4836 -84.1386 356° North 186 214 8,900  Descending Indianapolis Center
05:58AM 38.5361 -84.1442 355° North 188 216 9,000  Climbing Indianapolis Center
05:59AM 38.5872 -84.1467 358° North 186 214 8,900 -60 Descending Indianapolis Center
06:00AM 38.6394 -84.1442 North 187 215 8,900 120 Level Indianapolis Center
06:01AM 38.6850 -84.1608 344° North 179 206 9,200  Climbing Indianapolis Center
06:02AM 38.7369 -84.1708 351° North 186 214 9,000 -180 Descending Indianapolis Center
06:03AM 38.7881 -84.1733 358° North 184 212 8,900  Descending Indianapolis Center
06:04AM 38.8356 -84.2011 336° Northwest 182 209 9,000 60 Climbing Indianapolis Center
06:05AM 38.8875 -84.1919 North 187 215 9,100  Climbing Indianapolis Center
06:06AM 38.9386 -84.2061 348° North 183 211 9,000 -120 Descending Indianapolis Center
06:07AM 38.9906 -84.2011 North 185 213 8,900  Descending Indianapolis Center
06:08AM 39.0433 -84.1972 North 187 215 9,100 60 Climbing Indianapolis Center
06:09AM 39.0947 -84.1861 10° North 185 213 9,100 -60 Level Indianapolis Center
06:10AM 39.1458 -84.2022 346° North 185 213 9,000 -60 Descending Indianapolis Center
06:11AM 39.1983 -84.2053 357° North 188 216 9,000  Level Indianapolis Center
06:12AM 39.2517 -84.2006 North 188 216 9,000  Level Indianapolis Center
06:12AM 39.2786 -84.2050 353° North 186 214 9,000  Level Indianapolis Center
06:13AM 39.3039 -84.2100 351° North 187 215 9,000 60 Level Indianapolis Center
06:13AM 39.3369 -84.2125 357° North 182 209 9,100  Climbing Indianapolis Center
06:14AM 39.3897 -84.2111 North 188 216 9,000 -120 Descending Indianapolis Center
06:15AM 39.4403 -84.2092 North 190 219 8,900 -60 Descending Indianapolis Center
06:16AM 39.4919 -84.2183 352° North 188 216 8,900 -120 Level Indianapolis Center
06:17AM 39.5436 -84.2275 352° North 185 213 8,700 60 Descending Indianapolis Center
06:18AM 39.5967 -84.2233 North 190 219 9,100 120 Climbing Indianapolis Center
06:19AM 39.6508 -84.2278 356° North 178 205 9,000 -60 Descending Indianapolis Center
06:20AM 39.7000 -84.2419 348° North 186 214 9,000  Level Indianapolis Center
06:21AM 39.7531 -84.2378 North 195 224 9,000  Level Indianapolis Center
06:23AM 39.8047 -84.2469 352° North 185 213 9,000 60 Level Indianapolis Center
06:24AM 39.8553 -84.2450 North 187 215 9,200  Climbing Indianapolis Center
06:25AM 39.9058 -84.2458 359° North 197 227 9,000 -60 Descending Indianapolis Center
06:26AM 39.9658 -84.2542 354° North 188 216 9,100 -120 Climbing Indianapolis Center
06:27AM 40.0128 -84.2489 North 195 224 8,800  Descending Indianapolis Center
06:28AM 40.0647 -84.2553 355° North 186 214 9,100  Climbing Indianapolis Center
06:29AM 40.1133 -84.2725 345° North 183 211 8,900 -60 Descending Indianapolis Center
06:30AM 40.1700 -84.2744 358° North 187 215 9,000  Climbing Indianapolis Center
06:31AM 40.2217 -84.2644 North 188 216 9,000  Level Indianapolis Center
06:32AM 40.2742 -84.2656 359° North 189 217 9,100 -60 Climbing Indianapolis Center
06:33AM 40.3403 -84.2667 359° North 194 223 8,900 -120 Descending Indianapolis Center
06:34AM 40.3936 -84.2661 360° North 189 217 8,900 60 Level Indianapolis Center
06:35AM 40.4461 -84.2669 359° North 190 219 9,100  Climbing Indianapolis Center
06:36AM 40.4986 -84.2692 358° North 189 217 9,000  Descending Indianapolis Center
06:37AM 40.5508 -84.2536 13° North 187 215 9,100  Climbing Indianapolis Center
06:38AM 40.6042 -84.2503 North 193 222 9,000  Descending Indianapolis Center
06:39AM 40.6581 -84.2506 360° North 194 223 9,100 -120 Climbing Indianapolis Center
06:40AM 40.7092 -84.2664 347° North 190 219 8,800 -60 Descending Indianapolis Center
06:41AM 40.7636 -84.2697 357° North 191 220 9,000  Climbing Indianapolis Center
06:42AM 40.8167 -84.2725 358° North 190 219 8,900 -60 Descending Indianapolis Center
06:43AM 40.8708 -84.2636 North 192 221 8,900  Level Indianapolis Center
06:44AM 40.9228 -84.2669 357° North 188 216 9,000  Climbing Indianapolis Center
06:45AM 40.9753 -84.2706 357° North 185 213 9,000  Level Indianapolis Center
06:46AM 41.0269 -84.2861 347° North 190 219 9,000  Level Indianapolis Center
06:47AM 41.0778 -84.2933 354° North 186 214 9,000  Level Indianapolis Center
06:48AM 41.1303 -84.2969 357° North 188 216 9,000  Level Indianapolis Center
06:49AM 41.1828 -84.3042 354° North 187 215 9,000  Level Indianapolis Center
06:50AM 41.2356 -84.3114 354° North 189 217 9,000 -60 Level Indianapolis Center
06:51AM 41.2889 -84.3233 350° North 192 221 8,900 -360 Descending Indianapolis Center
06:52AM 41.3453 -84.3358 351° North 196 226 8,300 -600 Descending Indianapolis Center